Flight Track Log - Related Links

Times and Time Zones

All times are in EDT time to prevent confusion due to time zone crossing. See the EJA829P flight status page for this flight to view local times or setup timezone preferences in your user account.

Time Position Orientation Groundspeed Altitude Reporting Facility
EDT Latitude Longitude Course Direction KTS MPH feet Rate Location/Type
Tue 05:13:05 PM 42.2031 -75.8542 75° East 238 274 6,800  Level Boston Center
Tue 05:14:05 PM 42.2228 -75.7569 75° East 252 290 7,900 1,400 Climbing Boston Center
Tue 05:15:05 PM 42.2217 -75.6503 91° East 269 310 9,600 1,500 Climbing Boston Center
Tue 05:16:05 PM 42.1742 -75.5556 124° Southeast 281 323 10,900 650 Climbing Boston Center
Tue 05:17:05 PM 42.1231 -75.4436 122° Southeast 311 358 10,900  Level Boston Center
Tue 05:18:05 PM 42.0717 -75.3322 122° Southeast 334 384 10,900 50 Level Boston Center
Tue 05:19:05 PM 42.0286 -75.2183 117° Southeast 344 396 11,000 50 Climbing Boston Center
Tue 05:20:05 PM 41.9836 -75.1047 118° Southeast 344 396 11,000 -333 Level Boston Center
Tue 05:22:05 PM 41.9047 -74.8950 117° Southeast 314 361 10,000 -800 Descending Boston Center
Tue 05:23:05 PM 41.8714 -74.7961 114° Southeast 296 341 8,600 -1,250 Descending Boston Center
Tue 05:24:05 PM 41.8058 -74.7489 152° Southeast 270 311 7,500 -800 Descending Boston Center
Tue 05:25:05 PM 41.7314 -74.7156 162° South 269 310 7,000 -250 Descending Boston Center
Tue 05:26:05 PM 41.6569 -74.6881 165° South 279 321 7,000 -150 Level Boston Center
Tue 05:27:05 PM 41.5800 -74.6769 174° South 279 321 6,700 -409 Descending Boston Center
Tue 05:28:17 PM 41.5069 -74.6828 183° South 273 314 6,100 -190 Descending Boston Center
Tue 05:30:14 PM 41.3500 -74.6833 180° South 267 307 6,100  Level New York TRACON
Tue 05:31:08 PM 41.2833 -74.6500 159° South 273 314 6,100 -350 Level New York TRACON
Tue 05:32:14 PM 41.2167 -74.6000 151° Southeast 267 307 5,400 -800 Descending New York TRACON
Tue 05:33:08 PM 41.1500 -74.5500 151° Southeast 268 308 4,500 -737 Descending New York TRACON
Tue 05:34:08 PM 41.1000 -74.5000 143° Southeast 263 303 4,000 -600 Descending New York TRACON
Tue 05:35:08 PM 41.0333 -74.4500 150° Southeast 245 282 3,300 -524 Descending New York TRACON
Tue 05:36:14 PM 40.9667 -74.4000 150° Southeast 232 267 2,900 -571 Descending New York TRACON
Tue 05:37:14 PM 40.9167 -74.3667 153° Southeast 183 211 2,100 -700 Descending New York TRACON
Tue 05:38:14 PM 40.8667 -74.3667 180° South 183 211 1,500 -550 Descending New York TRACON
Tue 05:39:14 PM 40.8333 -74.3833 201° Southwest 142 163 1,000 -500 Descending New York TRACON
Tue 05:41:00 PM 40.7993 -74.4149 180° South  Level Estimated
Tue 05:48:00 PM 40.7993 -74.4149 180° South  Level Estimated
Tue 05:49:00 PM 40.7993 -74.4149 180° South  Level Estimated
Tue 05:50:00 PM 40.7993 -74.4149 180° South  Level Estimated
Tue 05:51:00 PM 40.7993 -74.4149 180° South  Level Estimated

Login

Don't have an account? Register now (free) for customized features, flight alerts, and more!